West Richfield, Ohio
Current Conditions -  °F | °C
As of 9:51 AM on Monday 24 Nov 2014 (Local Time) from KCLE Reporting Station
Overcast Overcast  
Wind Chill: 61°   Ceiling: 2900
Heat Index: 61°   Visibility: 10mi
Dew Point: 53°   Wind: 26mph
Humidity: 75%   Direction: 200°SSW
Pressure: 29.27"   Gusts: 37mph
Location:  41.2393°N, 81.6428°W
Report Text: KCLE 241451Z 20023G32KT 10SM BKN029 BKN035 OVC043 16/12 A2927 RMK AO2 PK WND 17032/1451 SLP909 T01610117 58006 $
Loading
Personal Weather Stations






























Interactive Weather Map New forecast layout! Learn more

10-Day Weather Forecast

Advertisements
Track Severe Weather on mobile